Weather reports worldwide

Advertisment
Braunschweig-Waggum, Germany (10346): temperature & dewpoint: 08.12.2019 06:00:00 - 14.12.2019 06:00:00 (CET)Braunschweig-Waggum, Germany (10346): wind speed: 08.12.2019 06:00:00 - 14.12.2019 06:00:00 (CET)Braunschweig-Waggum, Germany (10346): wind direction: 08.12.2019 06:00:00 - 14.12.2019 06:00:00 (CET)Braunschweig-Waggum, Germany (10346): visibility: 08.12.2019 06:00:00 - 14.12.2019 06:00:00 (CET)
Date & Time tt [°C] td [°C] ff [km/h] ff [kn] dd vv [km]
14.12.2019 06:00:00 - - - - - -
14.12.2019 05:00:00 - - - - - -
14.12.2019 04:00:00 - - - - - -
14.12.2019 03:00:00 - - - - - -
14.12.2019 02:00:00 - - - - - -
14.12.2019 01:00:00 - - - - - -
14.12.2019 00:00:00 - - - - - -
13.12.2019 23:00:00 - - - - - -
13.12.2019 22:00:00 - - - - - -
13.12.2019 21:00:00 2,0 -1,0 8 4 SSE 10
13.12.2019 20:00:00 2,0 -1,0 5 3 SSE 10
13.12.2019 19:00:00 2,0 -1,0 8 4 SE 10
13.12.2019 18:00:00 2,0 0,0 11 6 E 10
13.12.2019 17:00:00 2,0 0,0 13 7 ESE 10
13.12.2019 16:00:00 2,0 -1,0 13 7 E 10
13.12.2019 15:00:00 2,0 -1,0 13 7 E 8
13.12.2019 14:00:00 2,0 -1,0 18 10 E 10
13.12.2019 13:00:00 2,0 -1,0 21 11 ESE 10
13.12.2019 12:00:00 2,0 -1,0 18 10 E 10
13.12.2019 11:00:00 1,0 -2,0 16 9 E 10
13.12.2019 10:00:00 1,0 -2,0 18 10 E 10
13.12.2019 09:00:00 0,0 -2,0 13 7 E 10
13.12.2019 08:00:00 1,0 -2,0 16 9 ESE 10
13.12.2019 07:00:00 0,0 -2,0 11 6 E 10
13.12.2019 06:00:00 - - - - - -
13.12.2019 05:00:00 - - - - - -
13.12.2019 04:00:00 - - - - - -
13.12.2019 03:00:00 - - - - - -
13.12.2019 02:00:00 - - - - - -
13.12.2019 01:00:00 0,0 -2,0 11 6 ESE 10
13.12.2019 00:00:00 - - - - - -
12.12.2019 23:00:00 - - - - - -
12.12.2019 22:00:00 2,0 0,0 9 5 ESE 10
12.12.2019 21:00:00 3,0 1,0 8 4 SE 10
12.12.2019 20:00:00 4,0 1,0 9 5 SE 10
12.12.2019 19:00:00 5,0 1,0 9 5 SSE 10
12.12.2019 18:00:00 5,0 1,0 8 4 S 10
12.12.2019 17:00:00 5,0 1,0 15 8 S 10
12.12.2019 16:00:00 5,0 2,0 13 7 SSW 10
12.12.2019 15:00:00 5,0 2,0 9 5 SSW 10
12.12.2019 14:00:00 5,0 1,0 13 7 SSW 10
12.12.2019 13:00:00 5,0 1,0 15 8 SSW 10
12.12.2019 12:00:00 4,0 1,0 15 8 SSW 10
12.12.2019 11:00:00 4,0 1,0 13 7 SSW 10
12.12.2019 10:00:00 3,0 1,0 9 5 S 10
12.12.2019 09:00:00 3,0 1,0 8 4 S 10
12.12.2019 08:00:00 2,0 0,0 4 2 - 10
12.12.2019 07:00:00 3,0 1,0 9 5 SSW 10
12.12.2019 06:00:00 - - - - - -
12.12.2019 05:00:00 - - - - - -
12.12.2019 04:00:00 - - - - - -
12.12.2019 03:00:00 - - - - - -
12.12.2019 02:00:00 - - - - - -
12.12.2019 01:00:00 - - - - - -
12.12.2019 00:00:00 - - - - - -
11.12.2019 23:00:00 - - - - - -
11.12.2019 22:00:00 2,0 0,0 11 6 SW 10
11.12.2019 21:00:00 2,0 0,0 13 7 SW 10
11.12.2019 20:00:00 2,0 1,0 8 4 SSW 10
11.12.2019 19:00:00 2,0 0,0 11 6 SSW 10
11.12.2019 18:00:00 3,0 0,0 15 8 SW 10
11.12.2019 17:00:00 3,0 1,0 11 6 SSW 10
11.12.2019 16:00:00 3,0 1,0 11 6 SSW 10
11.12.2019 15:00:00 3,0 1,0 11 6 SSW 7
11.12.2019 14:00:00 3,0 2,0 9 5 SSW 10
11.12.2019 13:00:00 3,0 2,0 9 5 S 10
11.12.2019 12:00:00 3,0 1,0 13 7 S 9
11.12.2019 11:00:00 3,0 1,0 13 7 SSW 9
11.12.2019 10:00:00 3,0 1,0 13 7 SSW 9
11.12.2019 09:00:00 3,0 1,0 13 7 SSW 8
11.12.2019 08:00:00 4,0 0,0 15 8 SW 10
11.12.2019 07:00:00 5,0 -2,0 22 12 SW 10
11.12.2019 06:00:00 - - - - - -
11.12.2019 05:00:00 - - - - - -
11.12.2019 04:00:00 - - - - - -
11.12.2019 03:00:00 - - - - - -
11.12.2019 02:00:00 - - - - - -
11.12.2019 01:00:00 - - - - - -
11.12.2019 00:00:00 - - - - - -
10.12.2019 23:00:00 - - - - - -
10.12.2019 22:00:00 - - - - - -
10.12.2019 21:00:00 2,0 -2,0 11 6 SSE 10
10.12.2019 20:00:00 3,0 -2,0 13 7 S 10
10.12.2019 19:00:00 3,0 -1,0 13 7 S 10
10.12.2019 18:00:00 3,0 -1,0 9 5 S 10
10.12.2019 17:00:00 4,0 -1,0 9 5 SSW 10
10.12.2019 16:00:00 5,0 0,0 13 7 SSW 10
10.12.2019 15:00:00 5,0 0,0 15 8 SW 10
10.12.2019 14:00:00 6,0 1,0 18 10 WSW 10
10.12.2019 13:00:00 5,0 1,0 16 9 WSW 10
10.12.2019 12:00:00 5,0 1,0 15 8 W 10
10.12.2019 11:00:00 4,0 1,0 15 8 WSW 10
10.12.2019 10:00:00 3,0 0,0 13 7 W 10
10.12.2019 09:00:00 2,0 0,0 13 7 W 10
10.12.2019 08:00:00 3,0 1,0 16 9 W 10
10.12.2019 07:00:00 3,0 1,0 15 8 W 10
10.12.2019 06:00:00 - - - - - -
10.12.2019 05:00:00 - - - - - -
10.12.2019 04:00:00 - - - - - -
10.12.2019 03:00:00 - - - - - -
10.12.2019 02:00:00 - - - - - -
10.12.2019 01:00:00 - - - - - -
10.12.2019 00:00:00 - - - - - -
09.12.2019 23:00:00 - - - - - -
09.12.2019 22:00:00 - - - - - -
09.12.2019 21:00:00 6,0 4,0 18 10 WNW 10
09.12.2019 20:00:00 6,0 4,0 21 11 WNW 10
09.12.2019 19:00:00 6,0 4,0 18 10 W 10
09.12.2019 18:00:00 6,0 4,0 16 9 W 10
09.12.2019 17:00:00 6,0 4,0 16 9 W 10
09.12.2019 16:00:00 6,0 4,0 21 11 W 10
09.12.2019 15:00:00 7,0 4,0 18 10 W 10
09.12.2019 14:00:00 8,0 4,0 22 12 WSW 10
09.12.2019 13:00:00 8,0 3,0 16 9 SSW 10
09.12.2019 12:00:00 8,0 3,0 18 10 SW 10
09.12.2019 11:00:00 8,0 2,0 22 12 SW 10
09.12.2019 10:00:00 8,0 2,0 21 11 SW 10
09.12.2019 09:00:00 7,0 2,0 18 10 SSW 10
09.12.2019 08:00:00 7,0 2,0 21 11 SSW 10
09.12.2019 07:00:00 7,0 2,0 18 10 SW 10
09.12.2019 06:00:00 6,0 3,0 28 15 SW 10
09.12.2019 05:00:00 - - - - - -
09.12.2019 04:00:00 - - - - - -
09.12.2019 03:00:00 - - - - - -
09.12.2019 02:00:00 - - - - - -
09.12.2019 01:00:00 - - - - - -
09.12.2019 00:00:00 - - - - - -
08.12.2019 23:00:00 - - - - - -
08.12.2019 22:00:00 - - - - - -
08.12.2019 21:00:00 - - - - - -
08.12.2019 20:00:00 - - - - - -
08.12.2019 19:00:00 9,0 4,0 34 18 W 10
08.12.2019 18:00:00 10,0 6,0 24 13 WSW 10
08.12.2019 17:00:00 9,0 7,0 16 9 W 10
08.12.2019 16:00:00 10,0 8,0 24 13 WSW 10
08.12.2019 15:00:00 10,0 7,0 28 15 SW 10
08.12.2019 14:00:00 10,0 7,0 31 17 SW 10
08.12.2019 13:00:00 11,0 6,0 29 16 SW 10
08.12.2019 12:00:00 10,0 5,0 28 15 SW 10
08.12.2019 11:00:00 10,0 4,0 24 13 SW 10
08.12.2019 10:00:00 9,0 4,0 21 11 SW 10
08.12.2019 09:00:00 8,0 3,0 26 14 SW 10
08.12.2019 08:00:00 - - - - - -
08.12.2019 07:00:00 - - - - - -
08.12.2019 06:00:00 - - - - - -

tt = temperature
td = dewpoint
ff = wind speed
dd = wind direction
vv = visibility

Next stations